sensor_id;sensor_type;location;lat;lon;timestamp;pressure;altitude;pressure_sealevel;temperature;humidity
17764;BME280;22245;52.832;13.816;2023-04-26T00:01:08;101111.63;;;5.58;63.27
17764;BME280;22245;52.832;13.816;2023-04-26T00:04:30;101117.47;;;5.49;63.49
17764;BME280;22245;52.832;13.816;2023-04-26T00:07:53;101114.22;;;5.44;63.93
17764;BME280;22245;52.832;13.816;2023-04-26T00:11:14;101119.59;;;5.42;63.99
17764;BME280;22245;52.832;13.816;2023-04-26T00:14:36;101117.31;;;5.36;64.45
17764;BME280;22245;52.832;13.816;2023-04-26T00:17:58;101117.31;;;5.36;64.31
17764;BME280;22245;52.832;13.816;2023-04-26T00:21:20;101119.38;;;5.31;64.56
17764;BME280;22245;52.832;13.816;2023-04-26T00:24:43;101117.91;;;5.25;64.60
17764;BME280;22245;52.832;13.816;2023-04-26T00:28:05;101120.84;;;5.20;64.95
17764;BME280;22245;52.832;13.816;2023-04-26T00:31:26;101116.56;;;5.18;65.05
17764;BME280;22245;52.832;13.816;2023-04-26T00:34:48;101120.25;;;5.15;65.28
17764;BME280;22245;52.832;13.816;2023-04-26T00:38:10;101125.78;;;5.11;65.42
17764;BME280;22245;52.832;13.816;2023-04-26T00:41:32;101116.31;;;5.06;65.72
17764;BME280;22245;52.832;13.816;2023-04-26T00:44:54;101129.13;;;4.98;66.45
17764;BME280;22245;52.832;13.816;2023-04-26T00:48:17;101123.25;;;4.93;66.36
17764;BME280;22245;52.832;13.816;2023-04-26T00:51:39;101117.03;;;4.94;66.58
17764;BME280;22245;52.832;13.816;2023-04-26T00:55:01;101122.38;;;4.92;66.45
17764;BME280;22245;52.832;13.816;2023-04-26T00:58:24;101120.16;;;4.85;67.07
17764;BME280;22245;52.832;13.816;2023-04-26T01:01:46;101120.91;;;4.87;67.29
17764;BME280;22245;52.832;13.816;2023-04-26T01:05:08;101118.28;;;4.87;67.00
17764;BME280;22245;52.832;13.816;2023-04-26T01:08:30;101131.63;;;4.84;66.98
17764;BME280;22245;52.832;13.816;2023-04-26T01:11:51;101127.75;;;4.75;67.42
17764;BME280;22245;52.832;13.816;2023-04-26T01:15:17;101123.63;;;4.69;68.18
17764;BME280;22245;52.832;13.816;2023-04-26T01:18:38;101126.44;;;4.66;68.13
17764;BME280;22245;52.832;13.816;2023-04-26T01:22:02;101129.25;;;4.63;68.42
17764;BME280;22245;52.832;13.816;2023-04-26T01:25:24;101124.63;;;4.51;68.40
17764;BME280;22245;52.832;13.816;2023-04-26T01:28:46;101128.19;;;4.49;69.12
17764;BME280;22245;52.832;13.816;2023-04-26T01:32:09;101138.84;;;4.48;69.27
17764;BME280;22245;52.832;13.816;2023-04-26T01:35:30;101136.25;;;4.46;69.56
17764;BME280;22245;52.832;13.816;2023-04-26T01:38:52;101152.25;;;4.43;69.34
17764;BME280;22245;52.832;13.816;2023-04-26T01:42:16;101145.44;;;4.39;69.63
17764;BME280;22245;52.832;13.816;2023-04-26T01:45:37;101138.47;;;4.38;70.04
17764;BME280;22245;52.832;13.816;2023-04-26T01:49:18;101156.94;;;4.38;69.69
17764;BME280;22245;52.832;13.816;2023-04-26T01:52:39;101155.22;;;4.37;70.13
17764;BME280;22245;52.832;13.816;2023-04-26T01:56:01;101151.03;;;4.33;70.52
17764;BME280;22245;52.832;13.816;2023-04-26T01:59:24;101155.63;;;4.29;70.77
17764;BME280;22245;52.832;13.816;2023-04-26T02:02:46;101155.09;;;4.23;71.23
17764;BME280;22245;52.832;13.816;2023-04-26T02:06:08;101148.03;;;4.23;71.09
17764;BME280;22245;52.832;13.816;2023-04-26T02:09:31;101151.59;;;4.22;70.42
17764;BME280;22245;52.832;13.816;2023-04-26T02:12:52;101157.75;;;4.23;70.91
17764;BME280;22245;52.832;13.816;2023-04-26T02:16:15;101153.47;;;4.20;71.00
17764;BME280;22245;52.832;13.816;2023-04-26T02:19:37;101156.31;;;4.15;71.45
17764;BME280;22245;52.832;13.816;2023-04-26T02:22:59;101152.09;;;4.13;71.12
17764;BME280;22245;52.832;13.816;2023-04-26T02:26:21;101158.34;;;4.10;71.61
17764;BME280;22245;52.832;13.816;2023-04-26T02:29:42;101162.84;;;4.08;71.66
17764;BME280;22245;52.832;13.816;2023-04-26T02:33:06;101158.69;;;4.04;71.81
17764;BME280;22245;52.832;13.816;2023-04-26T02:36:28;101163.41;;;3.97;72.48
17764;BME280;22245;52.832;13.816;2023-04-26T02:39:50;101153.88;;;3.95;72.43
17764;BME280;22245;52.832;13.816;2023-04-26T02:43:12;101150.22;;;3.97;72.50
17764;BME280;22245;52.832;13.816;2023-04-26T02:46:33;101160.63;;;4.00;72.35
17764;BME280;22245;52.832;13.816;2023-04-26T02:49:57;101158.69;;;4.04;72.73
17764;BME280;22245;52.832;13.816;2023-04-26T02:53:18;101155.09;;;4.05;72.49
17764;BME280;22245;52.832;13.816;2023-04-26T02:56:41;101154.28;;;4.04;72.33
17764;BME280;22245;52.832;13.816;2023-04-26T03:00:03;101155.97;;;4.05;71.82
17764;BME280;22245;52.832;13.816;2023-04-26T03:03:27;101150.94;;;4.01;72.18
17764;BME280;22245;52.832;13.816;2023-04-26T03:06:52;101155.09;;;4.05;72.39
17764;BME280;22245;52.832;13.816;2023-04-26T03:10:13;101159.44;;;4.06;72.47
17764;BME280;22245;52.832;13.816;2023-04-26T03:13:36;101158.84;;;4.01;72.50
17764;BME280;22245;52.832;13.816;2023-04-26T03:16:57;101159.91;;;3.97;72.33
17764;BME280;22245;52.832;13.816;2023-04-26T03:20:19;101158.06;;;3.99;72.14
17764;BME280;22245;52.832;13.816;2023-04-26T03:23:43;101155.75;;;3.93;72.73
17764;BME280;22245;52.832;13.816;2023-04-26T03:27:06;101156.97;;;3.85;72.70
17764;BME280;22245;52.832;13.816;2023-04-26T03:30:28;101160.78;;;3.80;73.47
17764;BME280;22245;52.832;13.816;2023-04-26T03:33:49;101158.13;;;3.80;73.40
17764;BME280;22245;52.832;13.816;2023-04-26T03:37:10;101162.63;;;3.78;73.66
17764;BME280;22245;52.832;13.816;2023-04-26T03:40:35;101165.47;;;3.73;73.58
17764;BME280;22245;52.832;13.816;2023-04-26T03:43:57;101172.56;;;3.72;73.49
17764;BME280;22245;52.832;13.816;2023-04-26T03:47:19;101171.06;;;3.67;74.02
17764;BME280;22245;52.832;13.816;2023-04-26T03:50:41;101169.97;;;3.71;74.28
17764;BME280;22245;52.832;13.816;2023-04-26T03:54:04;101179.59;;;3.72;74.25
17764;BME280;22245;52.832;13.816;2023-04-26T03:57:27;101173.53;;;3.70;74.40
17764;BME280;22245;52.832;13.816;2023-04-26T04:00:49;101177.56;;;3.77;73.65
17764;BME280;22245;52.832;13.816;2023-04-26T04:04:10;101185.78;;;3.71;74.05
17764;BME280;22245;52.832;13.816;2023-04-26T04:07:33;101187.94;;;3.62;74.32
17764;BME280;22245;52.832;13.816;2023-04-26T04:10:55;101181.19;;;3.57;74.81
17764;BME280;22245;52.832;13.816;2023-04-26T04:14:19;101185.00;;;3.51;74.89
17764;BME280;22245;52.832;13.816;2023-04-26T04:17:40;101189.34;;;3.52;75.27
17764;BME280;22245;52.832;13.816;2023-04-26T04:21:03;101192.75;;;3.54;75.23
17764;BME280;22245;52.832;13.816;2023-04-26T04:24:26;101193.53;;;3.56;75.52
17764;BME280;22245;52.832;13.816;2023-04-26T04:27:48;101189.09;;;3.57;75.22
17764;BME280;22245;52.832;13.816;2023-04-26T04:31:12;101183.03;;;3.55;75.64
17764;BME280;22245;52.832;13.816;2023-04-26T04:34:34;101188.41;;;3.53;75.55
17764;BME280;22245;52.832;13.816;2023-04-26T04:37:57;101188.47;;;3.52;76.18
17764;BME280;22245;52.832;13.816;2023-04-26T04:41:18;101200.41;;;3.59;75.94
17764;BME280;22245;52.832;13.816;2023-04-26T04:44:42;101206.22;;;3.66;75.71
17764;BME280;22245;52.832;13.816;2023-04-26T04:48:06;101208.66;;;3.70;75.59
17764;BME280;22245;52.832;13.816;2023-04-26T04:51:28;101210.38;;;3.71;75.07
17764;BME280;22245;52.832;13.816;2023-04-26T04:54:50;101210.38;;;3.71;75.37
17764;BME280;22245;52.832;13.816;2023-04-26T04:58:12;101215.47;;;3.74;75.58
17764;BME280;22245;52.832;13.816;2023-04-26T05:01:34;101214.44;;;3.77;75.67
17764;BME280;22245;52.832;13.816;2023-04-26T05:05:07;101222.09;;;3.83;75.04
17764;BME280;22245;52.832;13.816;2023-04-26T05:08:30;101229.69;;;3.89;74.44
17764;BME280;22245;52.832;13.816;2023-04-26T05:11:55;101225.97;;;3.94;75.32
17764;BME280;22245;52.832;13.816;2023-04-26T05:15:17;101219.66;;;3.96;74.96
17764;BME280;22245;52.832;13.816;2023-04-26T05:18:39;101237.13;;;3.99;74.60
17764;BME280;22245;52.832;13.816;2023-04-26T05:22:03;101231.78;;;4.00;74.62
17764;BME280;22245;52.832;13.816;2023-04-26T05:25:24;101234.19;;;4.05;74.80
17764;BME280;22245;52.832;13.816;2023-04-26T05:29:06;101245.44;;;4.09;73.69
17764;BME280;22245;52.832;13.816;2023-04-26T05:32:39;101242.72;;;4.10;74.20
17764;BME280;22245;52.832;13.816;2023-04-26T05:36:09;101241.50;;;4.17;73.40
17764;BME280;22245;52.832;13.816;2023-04-26T05:39:32;101249.00;;;4.25;74.39
17764;BME280;22245;52.832;13.816;2023-04-26T05:42:54;101255.66;;;4.32;73.71
17764;BME280;22245;52.832;13.816;2023-04-26T05:46:16;101268.69;;;4.35;72.74
17764;BME280;22245;52.832;13.816;2023-04-26T05:49:38;101258.13;;;4.35;72.72
17764;BME280;22245;52.832;13.816;2023-04-26T05:52:59;101268.63;;;4.37;72.90
17764;BME280;22245;52.832;13.816;2023-04-26T05:56:23;101262.50;;;4.37;73.05
17764;BME280;22245;52.832;13.816;2023-04-26T05:59:45;101270.88;;;4.45;72.64
17764;BME280;22245;52.832;13.816;2023-04-26T06:03:09;101278.38;;;4.53;72.76
17764;BME280;22245;52.832;13.816;2023-04-26T06:06:32;101267.81;;;4.53;72.52
17764;BME280;22245;52.832;13.816;2023-04-26T06:09:54;101269.09;;;4.63;72.37
17764;BME280;22245;52.832;13.816;2023-04-26T06:13:17;101276.66;;;4.69;72.39
17764;BME280;22245;52.832;13.816;2023-04-26T06:16:39;101274.63;;;4.74;72.27
17764;BME280;22245;52.832;13.816;2023-04-26T06:20:04;101278.81;;;4.78;71.29
17764;BME280;22245;52.832;13.816;2023-04-26T06:23:26;101279.59;;;4.81;71.52
17764;BME280;22245;52.832;13.816;2023-04-26T06:26:48;101283.00;;;4.83;70.80
17764;BME280;22245;52.832;13.816;2023-04-26T06:30:12;101279.19;;;4.88;70.83
17764;BME280;22245;52.832;13.816;2023-04-26T06:33:38;101276.22;;;4.95;70.32
17764;BME280;22245;52.832;13.816;2023-04-26T06:37:00;101276.78;;;5.01;70.46
17764;BME280;22245;52.832;13.816;2023-04-26T06:40:22;101279.91;;;5.08;70.20
17764;BME280;22245;52.832;13.816;2023-04-26T06:43:45;101285.13;;;5.10;69.46
17764;BME280;22245;52.832;13.816;2023-04-26T06:47:15;101288.38;;;5.15;69.51
17764;BME280;22245;52.832;13.816;2023-04-26T06:50:37;101287.97;;;5.22;68.74
17764;BME280;22245;52.832;13.816;2023-04-26T06:53:59;101279.69;;;5.29;68.53
17764;BME280;22245;52.832;13.816;2023-04-26T06:57:21;101296.84;;;5.38;68.36
17764;BME280;22245;52.832;13.816;2023-04-26T07:00:43;101280.66;;;5.44;67.84
17764;BME280;22245;52.832;13.816;2023-04-26T07:04:06;101285.53;;;5.52;67.89
17764;BME280;22245;52.832;13.816;2023-04-26T07:07:30;101286.72;;;5.62;67.63
17764;BME280;22245;52.832;13.816;2023-04-26T07:10:52;101286.38;;;5.68;66.31
17764;BME280;22245;52.832;13.816;2023-04-26T07:14:14;101288.75;;;5.73;66.75
17764;BME280;22245;52.832;13.816;2023-04-26T07:17:36;101290.13;;;5.80;67.10
17764;BME280;22245;52.832;13.816;2023-04-26T07:20:59;101286.69;;;5.94;67.33
17764;BME280;22245;52.832;13.816;2023-04-26T07:24:21;101296.16;;;5.98;64.94
17764;BME280;22245;52.832;13.816;2023-04-26T07:27:43;101293.59;;;5.97;65.02
17764;BME280;22245;52.832;13.816;2023-04-26T07:31:05;101297.78;;;6.01;64.87
17764;BME280;22245;52.832;13.816;2023-04-26T07:34:30;101288.47;;;6.10;64.60
17764;BME280;22245;52.832;13.816;2023-04-26T07:37:53;101295.13;;;6.17;63.75
17764;BME280;22245;52.832;13.816;2023-04-26T07:41:14;101304.50;;;6.22;63.07
17764;BME280;22245;52.832;13.816;2023-04-26T07:44:37;101291.84;;;6.28;62.99
17764;BME280;22245;52.832;13.816;2023-04-26T07:47:58;101298.59;;;6.33;62.12
17764;BME280;22245;52.832;13.816;2023-04-26T07:51:21;101302.66;;;6.39;61.99
17764;BME280;22245;52.832;13.816;2023-04-26T07:54:45;101306.75;;;6.45;60.75
17764;BME280;22245;52.832;13.816;2023-04-26T07:58:07;101297.59;;;6.50;61.70
17764;BME280;22245;52.832;13.816;2023-04-26T08:01:34;101297.81;;;6.62;61.41
17764;BME280;22245;52.832;13.816;2023-04-26T08:04:56;101306.81;;;6.74;60.13
17764;BME280;22245;52.832;13.816;2023-04-26T08:08:18;101298.38;;;6.81;59.88
17764;BME280;22245;52.832;13.816;2023-04-26T08:11:42;101299.34;;;6.95;58.83
17764;BME280;22245;52.832;13.816;2023-04-26T08:15:05;101298.59;;;7.07;59.02
17764;BME280;22245;52.832;13.816;2023-04-26T08:18:30;101309.69;;;7.14;58.14
17764;BME280;22245;52.832;13.816;2023-04-26T08:21:53;101311.25;;;7.17;56.42
17764;BME280;22245;52.832;13.816;2023-04-26T08:25:15;101315.81;;;7.15;55.76
17764;BME280;22245;52.832;13.816;2023-04-26T08:28:38;101309.38;;;7.19;57.23
17764;BME280;22245;52.832;13.816;2023-04-26T08:32:00;101304.66;;;7.24;57.18
17764;BME280;22245;52.832;13.816;2023-04-26T08:35:22;101304.28;;;7.30;56.52
17764;BME280;22245;52.832;13.816;2023-04-26T08:38:46;101306.53;;;7.36;55.13
17764;BME280;22245;52.832;13.816;2023-04-26T08:42:12;101316.66;;;7.44;54.04
17764;BME280;22245;52.832;13.816;2023-04-26T08:49:39;101308.97;;;7.54;52.63
17764;BME280;22245;52.832;13.816;2023-04-26T08:53:04;101314.06;;;7.57;53.55
17764;BME280;22245;52.832;13.816;2023-04-26T08:56:27;101315.97;;;7.55;53.61
17764;BME280;22245;52.832;13.816;2023-04-26T08:59:49;101318.94;;;7.50;53.62
17764;BME280;22245;52.832;13.816;2023-04-26T09:03:16;101325.44;;;7.45;52.54
17764;BME280;22245;52.832;13.816;2023-04-26T09:06:47;101323.66;;;7.45;53.09
17764;BME280;22245;52.832;13.816;2023-04-26T09:10:12;101317.31;;;7.48;52.51
17764;BME280;22245;52.832;13.816;2023-04-26T09:13:34;101317.88;;;7.53;53.31
17764;BME280;22245;52.832;13.816;2023-04-26T09:16:57;101300.81;;;7.57;53.29
17764;BME280;22245;52.832;13.816;2023-04-26T09:20:22;101319.38;;;7.57;51.93
17764;BME280;22245;52.832;13.816;2023-04-26T09:28:22;101329.81;;;7.60;51.78
17764;BME280;22245;52.832;13.816;2023-04-26T09:31:48;101333.09;;;7.64;52.65
17764;BME280;22245;52.832;13.816;2023-04-26T09:35:42;101336.53;;;7.51;56.23
17764;BME280;22245;52.832;13.816;2023-04-26T09:39:29;101334.72;;;7.52;57.23
17764;BME280;22245;52.832;13.816;2023-04-26T09:42:57;101334.06;;;7.48;57.30
17764;BME280;22245;52.832;13.816;2023-04-26T09:46:25;101339.06;;;7.53;56.85
17764;BME280;22245;52.832;13.816;2023-04-26T09:49:49;101341.16;;;7.62;56.49
17764;BME280;22245;52.832;13.816;2023-04-26T09:54:03;101334.59;;;7.68;53.61
17764;BME280;22245;52.832;13.816;2023-04-26T09:57:26;101333.38;;;7.74;52.75
17764;BME280;22245;52.832;13.816;2023-04-26T10:00:51;101331.28;;;7.79;52.34
17764;BME280;22245;52.832;13.816;2023-04-26T10:04:18;101356.94;;;7.78;53.12
17764;BME280;22245;52.832;13.816;2023-04-26T10:07:59;101353.81;;;7.72;55.89
17764;BME280;22245;52.832;13.816;2023-04-26T10:16:37;101356.16;;;7.76;58.77
17764;BME280;22245;52.832;13.816;2023-04-26T10:20:07;101353.34;;;7.79;57.15
17764;BME280;22245;52.832;13.816;2023-04-26T10:24:00;101349.34;;;7.87;57.93
17764;BME280;22245;52.832;13.816;2023-04-26T10:27:49;101332.00;;;7.95;56.75
17764;BME280;22245;52.832;13.816;2023-04-26T10:31:17;101339.34;;;8.05;56.35
17764;BME280;22245;52.832;13.816;2023-04-26T10:34:40;101346.91;;;8.11;54.17
17764;BME280;22245;52.832;13.816;2023-04-26T10:38:09;101341.59;;;8.11;52.94
17764;BME280;22245;52.832;13.816;2023-04-26T10:41:35;101342.25;;;8.15;51.46
17764;BME280;22245;52.832;13.816;2023-04-26T10:45:25;101340.69;;;8.25;50.09
17764;BME280;22245;52.832;13.816;2023-04-26T10:48:47;101325.03;;;8.35;49.28
17764;BME280;22245;52.832;13.816;2023-04-26T10:52:11;101338.13;;;8.23;48.49
17764;BME280;22245;52.832;13.816;2023-04-26T10:55:39;101336.84;;;8.16;49.38
17764;BME280;22245;52.832;13.816;2023-04-26T10:59:09;101340.94;;;8.07;52.59
17764;BME280;22245;52.832;13.816;2023-04-26T11:02:44;101343.50;;;8.09;53.86
17764;BME280;22245;52.832;13.816;2023-04-26T11:06:10;101352.66;;;8.18;52.53
17764;BME280;22245;52.832;13.816;2023-04-26T11:09:35;101346.00;;;8.25;48.84
17764;BME280;22245;52.832;13.816;2023-04-26T11:13:04;101340.59;;;8.26;48.92
17764;BME280;22245;52.832;13.816;2023-04-26T11:16:36;101341.31;;;8.29;48.11
17764;BME280;22245;52.832;13.816;2023-04-26T11:19:57;101333.81;;;8.35;48.94
17764;BME280;22245;52.832;13.816;2023-04-26T11:23:29;101326.19;;;8.44;48.56
17764;BME280;22245;52.832;13.816;2023-04-26T11:26:54;101321.69;;;8.59;50.09
17764;BME280;22245;52.832;13.816;2023-04-26T11:30:22;101323.31;;;8.74;49.95
17764;BME280;22245;52.832;13.816;2023-04-26T11:33:44;101327.25;;;8.81;46.33
17764;BME280;22245;52.832;13.816;2023-04-26T11:37:10;101322.91;;;8.80;46.47
17764;BME280;22245;52.832;13.816;2023-04-26T11:40:33;101319.38;;;8.80;47.11
17764;BME280;22245;52.832;13.816;2023-04-26T11:43:58;101328.94;;;8.82;47.98
17764;BME280;22245;52.832;13.816;2023-04-26T11:47:22;101323.44;;;8.86;47.88
17764;BME280;22245;52.832;13.816;2023-04-26T11:50:52;101331.09;;;8.90;47.96
17764;BME280;22245;52.832;13.816;2023-04-26T11:54:28;101323.97;;;9.04;44.91
17764;BME280;22245;52.832;13.816;2023-04-26T11:57:53;101319.06;;;9.10;44.68
17764;BME280;22245;52.832;13.816;2023-04-26T12:01:20;101325.75;;;9.16;45.29
17764;BME280;22245;52.832;13.816;2023-04-26T12:04:47;101331.50;;;9.23;44.69
17764;BME280;22245;52.832;13.816;2023-04-26T12:08:23;101332.31;;;9.23;43.24
17764;BME280;22245;52.832;13.816;2023-04-26T12:11:47;101345.09;;;9.18;43.66
17764;BME280;22245;52.832;13.816;2023-04-26T12:15:14;101348.41;;;9.09;45.56
17764;BME280;22245;52.832;13.816;2023-04-26T12:18:37;101352.84;;;9.08;45.34
17764;BME280;22245;52.832;13.816;2023-04-26T12:22:04;101362.44;;;9.11;44.85
17764;BME280;22245;52.832;13.816;2023-04-26T12:25:27;101351.81;;;9.11;45.22
17764;BME280;22245;52.832;13.816;2023-04-26T12:28:50;101366.69;;;9.14;45.78
17764;BME280;22245;52.832;13.816;2023-04-26T12:32:13;101371.56;;;9.07;47.04
17764;BME280;22245;52.832;13.816;2023-04-26T12:35:36;101367.72;;;8.98;48.43
17764;BME280;22245;52.832;13.816;2023-04-26T12:39:00;101368.81;;;8.95;49.21
17764;BME280;22245;52.832;13.816;2023-04-26T12:42:24;101358.50;;;9.04;50.16
17764;BME280;22245;52.832;13.816;2023-04-26T12:45:47;101357.63;;;9.16;48.49
17764;BME280;22245;52.832;13.816;2023-04-26T12:49:09;101347.44;;;9.23;47.22
17764;BME280;22245;52.832;13.816;2023-04-26T12:52:31;101345.81;;;9.33;47.65
17764;BME280;22245;52.832;13.816;2023-04-26T12:55:54;101341.78;;;9.40;46.80
17764;BME280;22245;52.832;13.816;2023-04-26T12:59:16;101357.50;;;9.44;46.11
17764;BME280;22245;52.832;13.816;2023-04-26T13:02:39;101363.03;;;9.40;47.03
17764;BME280;22245;52.832;13.816;2023-04-26T13:06:02;101353.38;;;9.39;44.82
17764;BME280;22245;52.832;13.816;2023-04-26T13:09:25;101351.66;;;9.38;45.96
17764;BME280;22245;52.832;13.816;2023-04-26T13:12:48;101344.44;;;9.40;43.15
17764;BME280;22245;52.832;13.816;2023-04-26T13:16:10;101355.41;;;9.49;44.68
17764;BME280;22245;52.832;13.816;2023-04-26T13:19:33;101364.84;;;9.53;44.78
17764;BME280;22245;52.832;13.816;2023-04-26T13:22:55;101366.44;;;9.55;44.33
17764;BME280;22245;52.832;13.816;2023-04-26T13:26:17;101353.78;;;9.59;44.75
17764;BME280;22245;52.832;13.816;2023-04-26T13:29:41;101359.28;;;9.69;44.97
17764;BME280;22245;52.832;13.816;2023-04-26T13:33:03;101344.47;;;9.78;42.67
17764;BME280;22245;52.832;13.816;2023-04-26T13:36:26;101354.25;;;9.77;42.15
17764;BME280;22245;52.832;13.816;2023-04-26T13:39:48;101364.56;;;9.82;42.71
17764;BME280;22245;52.832;13.816;2023-04-26T13:43:10;101360.13;;;9.69;42.35
17764;BME280;22245;52.832;13.816;2023-04-26T13:46:33;101371.00;;;9.66;43.56
17764;BME280;22245;52.832;13.816;2023-04-26T13:49:55;101370.03;;;9.67;44.52
17764;BME280;22245;52.832;13.816;2023-04-26T13:53:19;101359.91;;;9.73;43.96
17764;BME280;22245;52.832;13.816;2023-04-26T13:56:41;101364.91;;;9.77;43.37
17764;BME280;22245;52.832;13.816;2023-04-26T14:00:03;101364.56;;;9.82;42.84
17764;BME280;22245;52.832;13.816;2023-04-26T14:03:32;101368.03;;;9.95;37.94
17764;BME280;22245;52.832;13.816;2023-04-26T14:06:54;101354.50;;;9.98;40.13
17764;BME280;22245;52.832;13.816;2023-04-26T14:10:16;101363.50;;;10.09;39.82
17764;BME280;22245;52.832;13.816;2023-04-26T14:13:37;101369.28;;;10.03;39.53
17764;BME280;22245;52.832;13.816;2023-04-26T14:16:58;101370.34;;;10.00;42.27
17764;BME280;22245;52.832;13.816;2023-04-26T14:20:22;101385.47;;;9.99;42.69
17764;BME280;22245;52.832;13.816;2023-04-26T14:23:43;101371.44;;;9.97;44.56
17764;BME280;22245;52.832;13.816;2023-04-26T14:27:05;101386.53;;;9.97;44.90
17764;BME280;22245;52.832;13.816;2023-04-26T14:30:27;101397.19;;;9.97;44.52
17764;BME280;22245;52.832;13.816;2023-04-26T14:33:49;101387.66;;;9.81;44.60
17764;BME280;22245;52.832;13.816;2023-04-26T14:37:12;101392.34;;;9.65;45.17
17764;BME280;22245;52.832;13.816;2023-04-26T14:40:35;101402.59;;;9.58;45.57
17764;BME280;22245;52.832;13.816;2023-04-26T14:43:56;101399.50;;;9.64;46.42
17764;BME280;22245;52.832;13.816;2023-04-26T14:47:19;101400.53;;;9.88;45.65
17764;BME280;22245;52.832;13.816;2023-04-26T14:50:41;101394.94;;;10.28;42.82
17764;BME280;22245;52.832;13.816;2023-04-26T14:54:03;101392.38;;;10.64;41.22
17764;BME280;22245;52.832;13.816;2023-04-26T14:57:25;101389.97;;;10.72;41.57
17764;BME280;22245;52.832;13.816;2023-04-26T15:00:46;101396.44;;;10.56;41.10
17764;BME280;22245;52.832;13.816;2023-04-26T15:04:07;101397.38;;;10.44;41.61
17764;BME280;22245;52.832;13.816;2023-04-26T15:07:29;101400.28;;;10.28;42.49
17764;BME280;22245;52.832;13.816;2023-04-26T15:10:53;101402.75;;;10.18;43.42
17764;BME280;22245;52.832;13.816;2023-04-26T15:14:15;101407.28;;;10.05;43.08
17764;BME280;22245;52.832;13.816;2023-04-26T15:17:37;101408.47;;;10.01;44.21
17764;BME280;22245;52.832;13.816;2023-04-26T15:20:58;101392.22;;;9.92;44.52
17764;BME280;22245;52.832;13.816;2023-04-26T15:24:20;101400.66;;;9.86;44.26
17764;BME280;22245;52.832;13.816;2023-04-26T15:27:44;101409.25;;;9.77;44.87
17764;BME280;22245;52.832;13.816;2023-04-26T15:31:07;101408.75;;;9.72;43.86
17764;BME280;22245;52.832;13.816;2023-04-26T15:34:37;101414.59;;;9.64;44.04
17764;BME280;22245;52.832;13.816;2023-04-26T15:37:59;101421.88;;;9.49;44.44
17764;BME280;22245;52.832;13.816;2023-04-26T15:41:20;101427.28;;;9.47;45.35
17764;BME280;22245;52.832;13.816;2023-04-26T15:44:43;101421.31;;;9.44;45.77
17764;BME280;22245;52.832;13.816;2023-04-26T15:48:05;101426.31;;;9.48;46.36
17764;BME280;22245;52.832;13.816;2023-04-26T15:51:27;101427.94;;;9.38;48.42
17764;BME280;22245;52.832;13.816;2023-04-26T15:54:49;101429.94;;;9.34;48.72
17764;BME280;22245;52.832;13.816;2023-04-26T15:58:11;101426.19;;;9.63;48.62
17764;BME280;22245;52.832;13.816;2023-04-26T16:01:34;101420.00;;;9.88;47.49
17764;BME280;22245;52.832;13.816;2023-04-26T16:04:55;101419.34;;;9.97;47.52
17764;BME280;22245;52.832;13.816;2023-04-26T16:08:17;101413.75;;;10.13;46.71
17764;BME280;22245;52.832;13.816;2023-04-26T16:11:59;101414.31;;;10.06;46.79
17764;BME280;22245;52.832;13.816;2023-04-26T16:15:23;101411.75;;;10.41;47.03
17764;BME280;22245;52.832;13.816;2023-04-26T16:18:46;101399.31;;;10.78;46.33
17764;BME280;22245;52.832;13.816;2023-04-26T16:22:08;101397.97;;;11.19;44.51
17764;BME280;22245;52.832;13.816;2023-04-26T16:25:29;101408.63;;;11.53;44.26
17764;BME280;22245;52.832;13.816;2023-04-26T16:28:51;101405.16;;;11.76;43.96
17764;BME280;22245;52.832;13.816;2023-04-26T16:32:14;101408.28;;;11.69;43.98
17764;BME280;22245;52.832;13.816;2023-04-26T16:35:37;101415.56;;;11.67;44.17
17764;BME280;22245;52.832;13.816;2023-04-26T16:38:58;101405.25;;;11.51;43.79
17764;BME280;22245;52.832;13.816;2023-04-26T16:42:20;101401.75;;;11.39;44.04
17764;BME280;22245;52.832;13.816;2023-04-26T16:45:41;101402.69;;;11.27;45.08
17764;BME280;22245;52.832;13.816;2023-04-26T16:49:03;101398.66;;;10.98;44.04
17764;BME280;22245;52.832;13.816;2023-04-26T16:52:30;101413.97;;;10.83;44.89
17764;BME280;22245;52.832;13.816;2023-04-26T16:55:52;101402.81;;;10.42;43.93
17764;BME280;22245;52.832;13.816;2023-04-26T16:59:14;101412.44;;;10.19;44.78
17764;BME280;22245;52.832;13.816;2023-04-26T17:02:36;101422.41;;;10.04;45.43
17764;BME280;22245;52.832;13.816;2023-04-26T17:05:59;101417.34;;;9.88;45.93
17764;BME280;22245;52.832;13.816;2023-04-26T17:09:23;101424.78;;;9.83;46.94
17764;BME280;22245;52.832;13.816;2023-04-26T17:12:44;101427.44;;;9.83;47.26
17764;BME280;22245;52.832;13.816;2023-04-26T17:16:06;101439.41;;;9.64;47.25
17764;BME280;22245;52.832;13.816;2023-04-26T17:19:29;101440.13;;;9.66;48.40
17764;BME280;22245;52.832;13.816;2023-04-26T17:22:51;101439.63;;;9.61;48.13
17764;BME280;22245;52.832;13.816;2023-04-26T17:26:14;101444.41;;;9.56;48.50
17764;BME280;22245;52.832;13.816;2023-04-26T17:29:36;101442.50;;;9.58;49.10
17764;BME280;22245;52.832;13.816;2023-04-26T17:32:57;101444.28;;;9.58;48.75
17764;BME280;22245;52.832;13.816;2023-04-26T17:36:19;101451.31;;;9.59;48.90
17764;BME280;22245;52.832;13.816;2023-04-26T17:39:41;101450.91;;;9.52;49.04
17764;BME280;22245;52.832;13.816;2023-04-26T17:43:04;101450.47;;;9.45;49.25
17764;BME280;22245;52.832;13.816;2023-04-26T17:46:26;101460.25;;;9.45;49.80
17764;BME280;22245;52.832;13.816;2023-04-26T17:49:48;101449.28;;;9.36;50.35
17764;BME280;22245;52.832;13.816;2023-04-26T17:53:09;101448.53;;;9.34;50.88
17764;BME280;22245;52.832;13.816;2023-04-26T17:56:30;101450.47;;;9.32;50.67
17764;BME280;22245;52.832;13.816;2023-04-26T17:59:53;101458.97;;;9.37;51.53